Time;durP1;ratioP1;P1;durP2;ratioP2;P2;SDS_P1;SDS_P2;PMS_P1;PMS_P2;Temp;Humidity;BMP_temperature;BMP_pressure;BME280_temperature;BME280_humidity;BME280_pressure;Samples;Min_cycle;Max_cycle;Signal;HPM_P1;HPM_P2
2023/01/31 00:01:27;;;;;;;20.40;9.60;;;1.20;71.90;;;;;;4980324;28;20047;-87
2023/01/31 00:04:15;;;;;;;18.05;9.10;;;1.20;28.30;;;;;;4968511;28;20109;-90
2023/01/31 00:07:02;;;;;;;19.65;9.07;;;1.10;2.70;;;;;;4962801;28;20121;-91
2023/01/31 00:09:52;;;;;;;21.30;9.07;;;1.10;1.00;;;;;;4975452;28;20047;-89
2023/01/31 00:12:39;;;;;;;22.77;8.60;;;1.10;1.00;;;;;;4969460;28;20058;-90
2023/01/31 00:15:26;;;;;;;21.40;8.45;;;1.10;1.00;;;;;;4970829;28;20102;-90
2023/01/31 00:18:14;;;;;;;22.77;8.85;;;1.00;1.00;;;;;;4970615;28;20491;-88
2023/01/31 00:21:28;;;;;;;22.05;8.75;;;1.00;1.00;;;;;;4972421;28;20469;-91
2023/01/31 00:24:17;;;;;;;22.15;9.55;;;1.00;1.00;;;;;;4991044;28;20046;-89
2023/01/31 00:27:06;;;;;;;22.52;8.57;;;1.00;1.00;;;;;;4974500;28;20472;-87
2023/01/31 00:29:53;;;;;;;18.05;9.40;;;1.00;99.90;;;;;;4970408;28;20078;-90
2023/01/31 00:32:40;;;;;;;19.48;9.40;;;0.90;99.90;;;;;;4980178;28;20430;-88
2023/01/31 00:35:29;;;;;;;17.83;8.57;;;0.80;99.90;;;;;;4985817;28;20130;-89
2023/01/31 00:38:18;;;;;;;23.70;8.98;;;0.90;99.90;;;;;;4957806;28;20062;-89
2023/01/31 00:41:06;;;;;;;21.70;8.52;;;0.80;99.90;;;;;;4963807;28;20065;-89
2023/01/31 00:43:53;;;;;;;19.83;8.40;;;0.80;99.90;;;;;;4970859;28;20093;-89
2023/01/31 00:46:41;;;;;;;16.20;8.07;;;0.80;99.90;;;;;;4971790;28;20050;-88
2023/01/31 00:49:28;;;;;;;19.35;8.18;;;0.70;99.90;;;;;;4979082;28;20111;-89
2023/01/31 00:52:15;;;;;;;21.98;8.77;;;0.70;99.90;;;;;;4979254;28;20055;-88
2023/01/31 00:55:03;;;;;;;23.73;8.63;;;0.70;99.90;;;;;;4977678;28;20462;-89
2023/01/31 00:57:50;;;;;;;25.60;9.38;;;0.70;99.90;;;;;;4965837;28;20039;-89
2023/01/31 01:00:39;;;;;;;24.77;9.30;;;0.70;99.90;;;;;;4974864;28;20046;-90
2023/01/31 01:03:29;;;;;;;23.95;9.55;;;0.70;99.90;;;;;;4976710;28;20070;-90
2023/01/31 01:06:22;;;;;;;21.38;9.15;;;0.70;99.90;;;;;;4976402;28;20126;-89
2023/01/31 01:09:10;;;;;;;20.38;9.30;;;0.70;99.90;;;;;;4962463;28;20548;-89
2023/01/31 01:11:57;;;;;;;25.50;9.07;;;0.70;99.90;;;;;;4962348;28;20182;-87
2023/01/31 01:14:44;;;;;;;21.20;9.18;;;0.60;99.90;;;;;;4966279;28;20049;-87
2023/01/31 01:17:32;;;;;;;26.88;8.73;;;0.50;99.90;;;;;;4962018;28;20046;-89
2023/01/31 01:20:19;;;;;;;24.02;10.02;;;0.60;1.00;;;;;;4964755;28;20835;-89
2023/01/31 01:23:06;;;;;;;22.92;8.85;;;0.60;1.00;;;;;;4988756;28;20467;-87
2023/01/31 01:25:54;;;;;;;20.98;9.43;;;0.60;1.00;;;;;;4962473;28;20035;-89
2023/01/31 01:28:43;;;;;;;26.35;9.85;;;0.50;1.00;;;;;;4976328;28;20047;-90
2023/01/31 01:31:31;;;;;;;16.67;8.95;;;0.40;1.00;;;;;;4958529;28;20039;-88
2023/01/31 01:34:18;;;;;;;25.67;9.85;;;0.40;1.00;;;;;;4977067;28;20053;-89
2023/01/31 01:37:18;;;;;;;18.92;9.13;;;0.40;34.10;;;;;;4964788;28;20054;-89
2023/01/31 01:40:07;;;;;;;18.48;8.93;;;0.30;73.10;;;;;;4978098;28;20379;-89
2023/01/31 01:42:58;;;;;;;26.83;10.13;;;0.30;99.90;;;;;;4959144;28;20054;-90
2023/01/31 01:45:45;;;;;;;27.45;11.05;;;0.30;99.90;;;;;;4963718;28;20051;-87
2023/01/31 01:48:33;;;;;;;27.77;11.07;;;0.20;99.90;;;;;;4963988;28;20043;-88
2023/01/31 01:51:22;;;;;;;21.70;9.65;;;0.20;99.90;;;;;;4977847;28;20047;-89
2023/01/31 01:54:17;;;;;;;21.55;10.32;;;0.20;99.90;;;;;;4965256;28;20137;-88
2023/01/31 01:57:06;;;;;;;29.73;10.18;;;0.20;99.90;;;;;;4975680;28;20182;-89
2023/01/31 02:00:12;;;;;;;31.05;11.23;;;0.30;99.90;;;;;;4969907;28;20045;-89
2023/01/31 02:03:03;;;;;;;31.55;9.82;;;0.30;99.90;;;;;;4981105;28;20387;-87
2023/01/31 02:06:03;;;;;;;27.17;10.50;;;0.20;99.90;;;;;;4971943;28;20058;-86
2023/01/31 02:08:51;;;;;;;31.80;10.70;;;0.20;99.90;;;;;;4985662;28;20054;-88
2023/01/31 02:11:41;;;;;;;26.42;11.15;;;0.10;99.90;;;;;;4996156;28;20047;-89
2023/01/31 02:14:33;;;;;;;26.13;11.68;;;0.00;99.90;;;;;;4966647;28;20122;-88
2023/01/31 02:17:22;;;;;;;29.70;12.27;;;0.00;99.90;;;;;;4969600;28;20488;-89
2023/01/31 02:20:34;;;;;;;33.15;12.65;;;0.00;99.90;;;;;;4980657;28;20162;-86
2023/01/31 02:23:43;;;;;;;24.50;11.00;;;-0.10;99.90;;;;;;4982630;28;20117;-88
2023/01/31 02:27:02;;;;;;;25.77;12.00;;;-0.10;99.90;;;;;;4978940;28;20051;-88
2023/01/31 02:30:16;;;;;;;28.40;11.80;;;-0.10;99.90;;;;;;4959190;28;20173;-88
2023/01/31 02:33:38;;;;;;;24.10;11.48;;;0.00;99.90;;;;;;4974086;28;20523;-90
2023/01/31 02:36:40;;;;;;;26.85;12.20;;;0.00;99.90;;;;;;4976414;28;20123;-90
2023/01/31 02:39:42;;;;;;;25.90;11.15;;;0.00;99.90;;;;;;4978455;28;20082;-87
2023/01/31 02:42:51;;;;;;;24.48;11.52;;;0.00;99.90;;;;;;4965448;28;20137;-89
2023/01/31 02:46:05;;;;;;;22.37;10.43;;;-0.10;99.90;;;;;;4980890;28;20034;-88
2023/01/31 02:49:01;;;;;;;30.50;12.13;;;0.10;99.90;;;;;;4962118;28;20096;-92
2023/01/31 02:52:15;;;;;;;32.35;10.85;;;0.10;99.90;;;;;;4969568;28;20441;-91
2023/01/31 02:58:33;;;;;;;28.67;11.02;;;0.20;99.90;;;;;;4976729;28;20049;-88
2023/01/31 03:01:26;;;;;;;27.45;10.50;;;0.20;99.90;;;;;;4961176;28;20401;-89
2023/01/31 03:04:14;;;;;;;21.05;10.45;;;0.20;99.90;;;;;;4977242;28;20057;-90
2023/01/31 03:07:15;;;;;;;23.92;10.40;;;0.20;99.90;;;;;;4976256;28;20058;-89
2023/01/31 03:10:18;;;;;;;21.98;10.27;;;0.10;99.90;;;;;;4962625;28;20038;-88
2023/01/31 03:13:24;;;;;;;23.88;11.07;;;0.10;99.90;;;;;;4968640;28;20047;-89
2023/01/31 03:20:10;;;;;;;27.92;10.82;;;0.00;99.90;;;;;;4973034;28;20345;-90
2023/01/31 03:23:06;;;;;;;31.65;10.07;;;0.00;99.90;;;;;;4958422;28;20061;-89
2023/01/31 03:25:59;;;;;;;31.45;10.75;;;0.10;99.90;;;;;;4992974;28;20043;-90
2023/01/31 03:28:53;;;;;;;28.73;9.55;;;0.20;99.90;;;;;;4980569;28;20070;-89
2023/01/31 03:31:48;;;;;;;21.20;8.77;;;0.40;99.90;;;;;;4970973;28;20098;-88
2023/01/31 03:34:35;;;;;;;26.48;8.38;;;0.50;99.90;;;;;;4994938;28;20067;-87
2023/01/31 03:37:55;;;;;;;23.92;8.90;;;0.50;99.90;;;;;;4984811;28;20030;-86
2023/01/31 03:40:55;;;;;;;30.92;9.68;;;0.50;99.90;;;;;;4996076;28;20059;-88
2023/01/31 03:44:08;;;;;;;23.25;8.43;;;0.50;26.60;;;;;;4973371;28;20046;-90
2023/01/31 03:47:01;;;;;;;21.30;7.40;;;0.50;1.00;;;;;;4980144;28;20030;-89
2023/01/31 03:49:50;;;;;;;22.95;8.13;;;0.40;1.00;;;;;;4982884;28;20042;-88
2023/01/31 03:52:42;;;;;;;23.60;8.23;;;0.40;1.00;;;;;;4996436;28;20061;-88
2023/01/31 03:55:53;;;;;;;20.17;8.80;;;0.40;99.90;;;;;;4969516;28;20050;-89
2023/01/31 03:58:49;;;;;;;22.17;8.48;;;0.30;99.90;;;;;;4975788;28;20365;-87
2023/01/31 04:01:43;;;;;;;26.95;10.35;;;0.20;1.00;;;;;;4969693;28;20050;-89
2023/01/31 04:04:50;;;;;;;22.83;8.82;;;0.10;1.00;;;;;;4966665;28;20161;-91
2023/01/31 04:07:38;;;;;;;24.25;9.43;;;0.00;1.00;;;;;;4965896;28;20141;-89
2023/01/31 04:10:26;;;;;;;19.50;9.05;;;0.00;46.00;;;;;;4968709;28;20034;-90
2023/01/31 04:13:21;;;;;;;23.13;9.15;;;-0.10;83.50;;;;;;4984925;28;20511;-89
2023/01/31 04:16:08;;;;;;;24.88;9.65;;;-0.20;99.90;;;;;;4976689;28;20043;-89
2023/01/31 04:18:56;;;;;;;35.03;10.80;;;-0.10;99.90;;;;;;4975621;28;20365;-90
2023/01/31 04:21:45;;;;;;;37.05;10.85;;;-0.10;99.90;;;;;;4960331;28;20039;-89
2023/01/31 04:24:32;;;;;;;27.23;10.07;;;0.00;99.90;;;;;;4968518;28;20350;-89
2023/01/31 04:27:20;;;;;;;36.38;10.13;;;0.00;99.90;;;;;;4960357;28;20485;-90
2023/01/31 04:30:10;;;;;;;25.27;9.48;;;0.00;99.90;;;;;;4974529;28;20469;-90
2023/01/31 04:32:57;;;;;;;32.13;10.02;;;0.00;99.90;;;;;;4974429;28;20051;-90
2023/01/31 04:35:45;;;;;;;22.50;10.15;;;-0.10;99.90;;;;;;4981519;28;20364;-89
2023/01/31 04:38:32;;;;;;;31.77;10.15;;;-0.10;99.90;;;;;;4974050;28;20522;-89
2023/01/31 04:41:20;;;;;;;25.38;10.48;;;-0.20;99.90;;;;;;4966462;28;20042;-90
2023/01/31 04:44:07;;;;;;;26.30;10.23;;;-0.20;99.90;;;;;;4968204;28;20050;-88
2023/01/31 04:46:54;;;;;;;30.67;10.88;;;-0.20;99.90;;;;;;4967724;28;20587;-85
2023/01/31 04:49:43;;;;;;;26.15;10.10;;;-0.20;99.90;;;;;;4963824;28;20182;-88
2023/01/31 04:52:31;;;;;;;23.80;10.30;;;-0.20;99.90;;;;;;4978658;28;20096;-89
2023/01/31 04:55:19;;;;;;;38.05;11.35;;;-0.30;99.90;;;;;;4970827;28;20069;-91
2023/01/31 04:58:06;;;;;;;32.67;10.38;;;-0.30;99.90;;;;;;4967268;28;20106;-89
2023/01/31 05:05:17;;;;;;;27.55;10.82;;;-0.30;99.90;;;;;;4970371;28;20034;-89
2023/01/31 05:08:04;;;;;;;20.55;10.00;;;-0.20;99.90;;;;;;4954713;28;20376;-90
2023/01/31 05:11:00;;;;;;;29.25;11.25;;;-0.30;99.90;;;;;;4980115;28;20679;-89
2023/01/31 05:13:53;;;;;;;20.80;11.00;;;-0.20;99.90;;;;;;4968722;28;20043;-89
2023/01/31 05:16:45;;;;;;;26.67;11.32;;;-0.20;99.90;;;;;;4974902;28;20438;-89
2023/01/31 05:19:36;;;;;;;26.50;12.20;;;-0.20;99.90;;;;;;4966279;28;20046;-90
2023/01/31 05:22:24;;;;;;;24.95;11.63;;;-0.10;99.90;;;;;;4986652;28;20430;-87
2023/01/31 05:25:11;;;;;;;26.35;11.07;;;0.00;99.90;;;;;;4971374;28;20061;-90
2023/01/31 05:27:59;;;;;;;27.75;11.55;;;-0.10;99.90;;;;;;4949106;28;20121;-87
2023/01/31 05:30:46;;;;;;;33.05;12.10;;;-0.10;99.90;;;;;;4973875;28;20111;-89
2023/01/31 05:33:36;;;;;;;37.08;11.93;;;-0.20;99.90;;;;;;4968943;28;20046;-91
2023/01/31 05:36:28;;;;;;;34.30;12.88;;;-0.20;99.90;;;;;;4965898;28;20082;-90
2023/01/31 05:39:18;;;;;;;24.95;11.05;;;-0.20;99.90;;;;;;4979379;28;20039;-90
2023/01/31 05:42:07;;;;;;;29.70;12.77;;;-0.20;99.90;;;;;;4979802;28;20046;-89
2023/01/31 05:44:56;;;;;;;25.00;12.13;;;-0.20;99.90;;;;;;4972930;28;20047;-92
2023/01/31 05:47:46;;;;;;;34.92;14.35;;;-0.30;99.90;;;;;;4979293;28;20121;-89
2023/01/31 05:50:33;;;;;;;34.95;12.93;;;-0.30;99.90;;;;;;4959498;28;20047;-89
2023/01/31 05:53:23;;;;;;;27.58;13.18;;;-0.30;99.90;;;;;;4966242;28;20098;-88
2023/01/31 05:56:12;;;;;;;28.45;13.10;;;-0.30;99.90;;;;;;4981464;28;20035;-89
2023/01/31 05:59:01;;;;;;;32.35;14.60;;;-0.40;99.90;;;;;;4966595;28;20046;-89
2023/01/31 06:01:51;;;;;;;30.23;13.35;;;-0.50;99.90;;;;;;4966883;28;20102;-90
2023/01/31 06:05:05;;;;;;;31.67;13.02;;;-0.50;99.90;;;;;;4973310;28;20310;-91
2023/01/31 06:08:13;;;;;;;26.75;12.98;;;-0.50;99.90;;;;;;4980362;28;20082;-91
2023/01/31 06:11:09;;;;;;;32.03;13.10;;;-0.50;99.90;;;;;;4969691;28;20476;-89
2023/01/31 06:13:58;;;;;;;29.40;12.50;;;-0.50;99.90;;;;;;4970950;28;20065;-91
2023/01/31 06:16:52;;;;;;;38.05;15.73;;;-0.50;99.90;;;;;;4965519;28;20055;-92
2023/01/31 06:19:42;;;;;;;34.05;14.82;;;-0.50;99.90;;;;;;4959222;28;20039;-92
2023/01/31 06:27:26;;;;;;;34.88;14.63;;;-0.60;99.90;;;;;;4907585;29;20111;-92
2023/01/31 06:30:54;;;;;;;37.58;13.60;;;-0.60;99.90;;;;;;4884685;29;20123;-90
2023/01/31 06:37:58;;;;;;;26.00;13.43;;;-0.60;99.90;;;;;;4905899;29;20397;-88
2023/01/31 06:45:12;;;;;;;35.10;13.88;;;-0.70;99.90;;;;;;4835341;29;20050;-88
2023/01/31 06:48:05;;;;;;;33.17;14.55;;;-0.60;99.90;;;;;;4859429;29;20192;-88
2023/01/31 07:10:38;;;;;;;45.00;15.48;;;-0.50;99.90;;;;;;1298613;23;20354;-82
2023/01/31 07:17:59;;;;;;;40.47;14.68;;;-0.40;99.90;;;;;;4973790;28;20039;-82
2023/01/31 07:21:05;;;;;;;30.52;13.50;;;-0.50;99.90;;;;;;4957852;28;20093;-81
2023/01/31 07:23:52;;;;;;;29.33;13.52;;;-0.40;99.90;;;;;;4950263;28;20124;-83
2023/01/31 07:26:42;;;;;;;36.85;14.70;;;-0.40;99.90;;;;;;4957488;28;20527;-82
2023/01/31 07:29:32;;;;;;;35.75;15.85;;;-0.40;99.90;;;;;;4954391;28;20062;-81
2023/01/31 07:32:21;;;;;;;33.72;15.38;;;-0.30;99.90;;;;;;4944885;28;20199;-83
2023/01/31 07:35:14;;;;;;;33.10;14.82;;;-0.20;99.90;;;;;;4956256;28;20062;-82
2023/01/31 07:38:04;;;;;;;39.58;17.33;;;-0.20;99.90;;;;;;4952171;28;20054;-82
2023/01/31 07:40:51;;;;;;;35.25;15.85;;;-0.10;99.90;;;;;;4956789;28;20055;-81
2023/01/31 07:43:41;;;;;;;44.53;14.90;;;0.00;99.90;;;;;;4958947;28;20047;-82
2023/01/31 07:46:29;;;;;;;31.50;15.77;;;0.10;99.90;;;;;;4958625;28;20126;-81
2023/01/31 07:49:20;;;;;;;33.00;13.38;;;0.20;99.90;;;;;;4958302;28;20054;-81
2023/01/31 07:52:08;;;;;;;34.50;13.90;;;0.30;99.90;;;;;;4957446;28;20050;-82
2023/01/31 07:54:58;;;;;;;36.25;13.88;;;0.50;99.90;;;;;;4954008;28;20448;-82
2023/01/31 07:57:45;;;;;;;31.73;13.05;;;0.60;99.90;;;;;;4940343;28;20479;-82
2023/01/31 08:04:07;;;;;;;43.92;18.20;;;0.70;99.90;;;;;;4945123;28;20057;-84
2023/01/31 08:07:09;;;;;;;31.60;11.95;;;0.80;99.90;;;;;;4961040;28;20496;-84
2023/01/31 08:09:56;;;;;;;23.58;10.85;;;0.90;99.90;;;;;;4956632;28;20153;-85
2023/01/31 08:13:00;;;;;;;24.92;10.75;;;0.90;99.90;;;;;;4970011;28;20396;-84
2023/01/31 08:15:54;;;;;;;28.33;11.45;;;0.90;99.90;;;;;;4963110;28;20073;-84
2023/01/31 08:18:48;;;;;;;30.33;10.88;;;1.00;99.90;;;;;;4964708;28;20056;-84
2023/01/31 08:21:36;;;;;;;23.35;10.50;;;1.10;99.90;;;;;;4944001;28;20476;-83
2023/01/31 08:24:24;;;;;;;31.25;10.82;;;1.10;98.10;;;;;;4952118;28;20384;-83
2023/01/31 08:27:21;;;;;;;26.67;10.07;;;1.20;1.00;;;;;;4960632;28;20062;-83
2023/01/31 08:30:10;;;;;;;26.85;10.00;;;1.20;1.00;;;;;;4955817;28;20058;-83
2023/01/31 08:33:19;;;;;;;;;;;;;;;;;;;;;
2023/01/31 08:36:34;;;;;;;;;;;;;;;;;;;;;
2023/01/31 08:39:47;;;;;;;25.58;9.95;;;1.70;1.00;;;;;;4972685;28;20042;-84
2023/01/31 08:42:37;;;;;;;26.15;10.02;;;1.90;99.90;;;;;;4955734;28;20047;-84
2023/01/31 08:45:36;;;;;;;18.38;8.10;;;1.90;99.90;;;;;;4964423;28;20051;-82
2023/01/31 08:48:26;;;;;;;25.42;9.80;;;1.90;99.90;;;;;;4962784;28;20053;-86
2023/01/31 08:51:26;;;;;;;20.07;8.30;;;2.00;1.00;;;;;;4966808;28;20047;-83
2023/01/31 08:54:52;;;;;;;;;;;;;;;;;;;;;
2023/01/31 09:01:45;;;;;;;16.02;6.95;;;3.30;99.90;;;;;;4936411;29;20122;-86
2023/01/31 09:05:16;;;;;;;19.73;7.75;;;3.40;99.90;;;;;;4928667;29;20062;-83
2023/01/31 09:08:22;;;;;;;24.90;7.22;;;3.30;1.00;;;;;;4924867;29;20052;-82
2023/01/31 09:11:39;;;;;;;;;;;;;;;;;;;;;
2023/01/31 09:15:03;;;;;;;18.58;7.38;;;3.40;99.90;;;;;;4971979;28;20122;-84
2023/01/31 09:18:34;;;;;;;18.00;6.97;;;3.60;99.90;;;;;;4966666;28;20106;-85
2023/01/31 09:22:19;;;;;;;;;;;;;;;;;;;;;
2023/01/31 09:25:53;;;;;;;;;;;;;;;;;;;;;
2023/01/31 09:29:08;;;;;;;15.90;6.78;;;4.30;99.90;;;;;;4793402;29;20055;-84
2023/01/31 09:32:16;;;;;;;21.38;8.27;;;3.90;99.90;;;;;;4796077;29;20063;-83
2023/01/31 09:35:40;;;;;;;19.30;6.53;;;3.80;99.90;;;;;;4793064;29;20051;-86
2023/01/31 09:39:01;;;;;;;17.60;5.78;;;3.50;99.90;;;;;;4788320;29;20054;-84
2023/01/31 09:42:54;;;;;;;;;;;;;;;;;;;;;
2023/01/31 09:46:08;;;;;;;20.00;6.43;;;3.70;99.90;;;;;;4937832;28;20310;-84
2023/01/31 09:49:38;;;;;;;;;;;;;;;;;;;;;
2023/01/31 09:52:47;;;;;;;19.50;6.22;;;4.10;99.90;;;;;;4982752;28;20125;-84
2023/01/31 09:56:16;;;;;;;20.50;6.40;;;4.00;99.90;;;;;;4973714;28;20023;-82
2023/01/31 09:59:49;;;;;;;13.88;5.65;;;4.00;99.90;;;;;;4983173;28;20050;-82
2023/01/31 10:03:25;;;;;;;16.10;5.57;;;3.90;99.90;;;;;;4920777;29;20040;-82
2023/01/31 10:06:57;;;;;;;20.55;8.07;;;4.50;99.90;;;;;;4931702;29;20060;-82
2023/01/31 10:14:33;;;;;;;21.50;6.25;;;3.50;99.90;;;;;;4916161;29;20052;-86
2023/01/31 10:17:51;;;;;;;25.45;7.28;;;3.20;99.90;;;;;;4915069;29;20487;-82
2023/01/31 10:20:59;;;;;;;20.77;6.70;;;3.20;99.90;;;;;;4898526;29;20366;-81
2023/01/31 10:23:58;;;;;;;13.85;6.35;;;3.10;99.90;;;;;;4932348;29;20059;-83
2023/01/31 10:27:39;;;;;;;11.85;4.72;;;3.10;99.90;;;;;;4914113;29;20041;-83
2023/01/31 10:30:59;;;;;;;14.55;6.00;;;3.20;99.90;;;;;;4882103;29;20080;-85
2023/01/31 10:34:05;;;;;;;20.30;5.22;;;3.20;99.90;;;;;;4913585;29;20417;-84
2023/01/31 10:37:39;;;;;;;13.18;5.82;;;3.10;99.90;;;;;;4912615;29;20044;-82
2023/01/31 10:40:52;;;;;;;17.08;5.00;;;3.20;99.90;;;;;;4960287;28;20381;-85
2023/01/31 10:44:33;;;;;;;;;;;;;;;;;;;;;
2023/01/31 10:48:05;;;;;;;11.40;4.20;;;4.10;99.90;;;;;;4916278;29;20054;-83
2023/01/31 10:51:29;;;;;;;18.10;4.38;;;4.70;99.90;;;;;;4899200;29;20188;-83
2023/01/31 10:55:17;;;;;;;;;;;;;;;;;;;;;
2023/01/31 10:58:26;;;;;;;11.75;4.22;;;5.80;1.00;;;;;;4916967;29;20075;-84
2023/01/31 11:06:32;;;;;;;;;;;;;;;;;;;;;
2023/01/31 11:09:54;;;;;;;9.23;4.35;;;4.70;1.00;;;;;;4899613;29;20049;-88
2023/01/31 11:13:35;;;;;;;13.23;4.38;;;4.20;1.00;;;;;;4885850;29;20055;-89
2023/01/31 11:16:32;;;;;;;13.02;4.63;;;4.00;1.00;;;;;;4905932;29;20048;-87
2023/01/31 11:49:34;;;;;;;;;;;;;;;;;;;;;
2023/01/31 12:01:14;;;;;;;9.75;3.72;;;4.30;1.00;;;;;;4918267;29;20180;-86
2023/01/31 12:04:50;;;;;;;10.13;3.63;;;4.30;1.00;;;;;;4914292;29;20040;-89
2023/01/31 12:08:22;;;;;;;6.77;3.70;;;4.00;1.00;;;;;;4906354;29;20398;-87
2023/01/31 12:15:14;;;;;;;15.35;4.90;;;3.90;1.00;;;;;;4932416;29;20054;-86
2023/01/31 12:19:02;;;;;;;13.15;4.43;;;3.70;1.00;;;;;;4895172;29;20152;-85
2023/01/31 12:22:29;;;;;;;9.65;3.67;;;3.70;1.00;;;;;;4962446;28;20073;-84
2023/01/31 12:25:39;;;;;;;9.25;3.65;;;3.50;1.00;;;;;;4935568;28;20061;-85
2023/01/31 12:28:34;;;;;;;14.40;4.13;;;3.40;1.00;;;;;;4981160;28;20137;-84
2023/01/31 12:32:07;;;;;;;11.35;4.00;;;3.30;1.00;;;;;;4971273;28;20038;-85
2023/01/31 12:35:28;;;;;;;12.80;5.05;;;3.30;1.00;;;;;;4980853;28;20074;-85
2023/01/31 12:39:03;;;;;;;16.73;6.05;;;3.40;1.00;;;;;;4965520;28;20043;-86
2023/01/31 12:42:28;;;;;;;13.52;4.70;;;3.40;1.00;;;;;;4967151;28;20051;-87
2023/01/31 12:46:16;;;;;;;11.35;4.07;;;3.20;1.00;;;;;;4960909;28;20516;-84
2023/01/31 12:49:52;;;;;;;14.43;5.43;;;3.30;1.00;;;;;;4961494;28;20038;-84
2023/01/31 12:53:28;;;;;;;14.98;5.03;;;3.40;1.00;;;;;;4976422;28;20046;-85
2023/01/31 12:56:45;;;;;;;9.57;4.13;;;3.40;1.00;;;;;;4962037;28;20121;-85
2023/01/31 12:59:52;;;;;;;13.48;4.57;;;3.20;1.00;;;;;;4961331;28;20102;-84
2023/01/31 13:06:41;;;;;;;11.43;5.13;;;3.30;1.00;;;;;;4971306;28;20738;-84
2023/01/31 13:13:55;;;;;;;9.20;4.40;;;3.40;1.00;;;;;;4895856;29;20072;-83
2023/01/31 13:17:49;;;;;;;;;;;;;;;;;;;;;
2023/01/31 13:21:07;;;;;;;10.40;4.70;;;3.10;1.00;;;;;;4896027;29;20371;-87
2023/01/31 13:24:53;;;;;;;;;;;;;;;;;;;;;
2023/01/31 13:28:40;;;;;;;;;;;;;;;;;;;;;
2023/01/31 13:31:57;;;;;;;14.70;5.13;;;3.00;1.00;;;;;;4879473;29;20048;-82
2023/01/31 13:34:51;;;;;;;16.73;4.95;;;2.90;1.00;;;;;;4882745;29;20063;-82
2023/01/31 13:37:44;;;;;;;9.68;4.53;;;2.90;1.00;;;;;;4886839;29;20454;-84
2023/01/31 13:41:31;;;;;;;14.55;5.47;;;2.90;1.00;;;;;;4884074;29;20045;-86
2023/01/31 13:44:49;;;;;;;14.07;4.88;;;2.90;1.00;;;;;;4885476;29;20411;-87
2023/01/31 13:48:12;;;;;;;14.13;4.95;;;2.90;1.00;;;;;;4909144;28;20047;-87
2023/01/31 13:51:32;;;;;;;13.63;4.65;;;2.80;1.00;;;;;;4959496;28;20053;-85
2023/01/31 13:54:52;;;;;;;15.10;5.15;;;2.80;5.70;;;;;;4966338;28;20050;-83
2023/01/31 13:58:05;;;;;;;10.85;4.82;;;2.70;1.00;;;;;;4962521;28;20360;-82
2023/01/31 14:01:26;;;;;;;17.65;5.93;;;2.70;3.90;;;;;;4969658;28;20043;-81
2023/01/31 14:04:14;;;;;;;14.52;5.55;;;2.70;4.70;;;;;;4963591;28;20121;-84
2023/01/31 14:07:09;;;;;;;13.90;4.68;;;2.60;7.30;;;;;;4964282;28;20481;-84
2023/01/31 14:10:24;;;;;;;11.77;4.88;;;2.70;12.70;;;;;;4964933;28;20078;-84
2023/01/31 14:13:30;;;;;;;11.85;5.50;;;2.60;32.20;;;;;;4962486;28;20046;-84
2023/01/31 14:16:45;;;;;;;11.25;5.28;;;2.70;48.70;;;;;;4973273;28;20177;-83
2023/01/31 14:19:51;;;;;;;12.68;5.85;;;2.70;72.30;;;;;;4965966;28;20122;-81
2023/01/31 14:22:40;;;;;;;13.00;5.70;;;2.70;78.90;;;;;;4963473;28;20051;-80
2023/01/31 14:25:42;;;;;;;17.23;6.45;;;2.70;70.80;;;;;;4972730;28;20154;-84
2023/01/31 14:28:41;;;;;;;13.93;6.07;;;2.70;81.40;;;;;;4965691;28;20053;-82
2023/01/31 14:31:52;;;;;;;10.55;5.72;;;2.70;90.80;;;;;;4970307;28;20074;-84
2023/01/31 14:34:57;;;;;;;10.40;5.97;;;2.80;93.00;;;;;;4969028;28;20182;-84
2023/01/31 14:38:18;;;;;;;11.43;5.43;;;2.80;90.00;;;;;;4966054;28;20152;-82
2023/01/31 14:41:51;;;;;;;11.90;6.50;;;2.80;93.80;;;;;;4969551;28;20049;-85
2023/01/31 14:44:56;;;;;;;8.43;5.28;;;2.90;92.20;;;;;;4960866;28;20055;-87
2023/01/31 14:48:31;;;;;;;10.25;5.53;;;3.00;94.00;;;;;;4956534;28;20456;-83
2023/01/31 14:51:38;;;;;;;13.73;5.63;;;3.20;55.40;;;;;;4959493;28;20058;-82
2023/01/31 14:54:44;;;;;;;14.40;6.30;;;3.10;36.40;;;;;;4961100;28;20063;-84
2023/01/31 14:58:14;;;;;;;15.48;6.82;;;3.10;33.80;;;;;;4963550;28;20368;-83
2023/01/31 15:01:17;;;;;;;8.32;5.82;;;3.10;41.90;;;;;;4949392;28;20053;-81
2023/01/31 15:04:26;;;;;;;11.98;5.53;;;3.00;35.50;;;;;;4960163;28;20039;-83
2023/01/31 15:07:28;;;;;;;14.68;6.03;;;2.90;44.30;;;;;;4963362;28;20042;-82
2023/01/31 15:11:21;;;;;;;;;;;;;;;;;;;;;
2023/01/31 15:14:43;;;;;;;12.10;6.18;;;2.90;73.80;;;;;;4885313;29;20330;-86
2023/01/31 15:17:55;;;;;;;;;;;;;;;;;;;;;
2023/01/31 15:20:59;;;;;;;10.98;5.25;;;2.80;99.90;;;;;;4875386;29;20060;-85
2023/01/31 15:23:55;;;;;;;17.50;6.80;;;2.80;99.90;;;;;;4878971;29;20045;-85
2023/01/31 15:26:56;;;;;;;8.85;5.55;;;2.80;99.90;;;;;;4880144;29;20225;-85
2023/01/31 15:30:17;;;;;;;15.60;6.28;;;2.80;99.90;;;;;;4884148;29;20072;-85
2023/01/31 15:42:03;;;;;;;20.27;8.50;;;2.80;99.90;;;;;;4912370;28;20432;-90
2023/01/31 15:45:16;;;;;;;17.30;6.80;;;2.90;99.90;;;;;;4966900;28;20479;-86
2023/01/31 15:48:29;;;;;;;10.13;5.63;;;3.00;99.90;;;;;;4957883;28;20077;-88
2023/01/31 15:51:20;;;;;;;12.27;5.30;;;2.90;99.90;;;;;;4970600;28;20062;-87
2023/01/31 15:54:17;;;;;;;10.52;4.90;;;3.00;99.90;;;;;;4967885;28;20054;-88
2023/01/31 15:57:16;;;;;;;9.60;5.40;;;2.90;99.90;;;;;;4962554;28;20129;-89
2023/01/31 16:00:09;;;;;;;8.02;4.50;;;2.90;99.90;;;;;;4950838;28;20090;-87
2023/01/31 16:02:59;;;;;;;26.67;9.48;;;2.90;99.90;;;;;;4964511;28;20034;-89
2023/01/31 16:05:58;;;;;;;12.07;5.47;;;2.90;99.90;;;;;;4963215;28;20461;-87
2023/01/31 16:08:51;;;;;;;11.70;5.38;;;2.90;99.90;;;;;;4962123;28;20181;-86
2023/01/31 16:11:39;;;;;;;12.05;6.43;;;2.90;99.90;;;;;;4968485;28;20058;-86
2023/01/31 16:14:31;;;;;;;10.00;4.97;;;2.90;99.90;;;;;;4943535;28;20480;-87
2023/01/31 16:17:19;;;;;;;10.57;5.30;;;2.90;99.90;;;;;;4963258;28;20061;-87
2023/01/31 16:20:33;;;;;;;13.27;6.43;;;2.90;99.90;;;;;;4963820;28;20043;-90
2023/01/31 16:23:26;;;;;;;12.55;6.00;;;2.90;99.90;;;;;;4968153;28;20127;-89
2023/01/31 16:26:26;;;;;;;10.13;5.00;;;2.80;99.90;;;;;;4956585;28;20042;-88
2023/01/31 16:29:17;;;;;;;14.30;5.85;;;2.90;99.90;;;;;;4963596;28;20043;-88
2023/01/31 16:32:32;;;;;;;8.23;5.32;;;2.80;99.90;;;;;;4959280;28;20129;-87
2023/01/31 16:35:23;;;;;;;10.88;6.05;;;2.80;99.90;;;;;;4960720;28;20066;-86
2023/01/31 16:38:25;;;;;;;15.82;7.75;;;2.80;99.90;;;;;;4955672;28;20070;-89
2023/01/31 16:41:42;;;;;;;11.80;5.82;;;2.80;99.90;;;;;;4970460;28;20043;-88
2023/01/31 16:44:41;;;;;;;12.85;5.57;;;2.80;99.90;;;;;;4959515;28;20039;-87
2023/01/31 16:47:46;;;;;;;12.15;5.75;;;2.80;99.90;;;;;;4945946;28;20050;-86
2023/01/31 16:51:00;;;;;;;11.00;5.55;;;2.80;99.90;;;;;;4965033;28;20046;-87
2023/01/31 16:54:12;;;;;;;11.07;6.32;;;2.80;99.90;;;;;;4957262;28;20129;-88
2023/01/31 16:57:04;;;;;;;8.30;5.57;;;2.80;99.90;;;;;;4963824;28;20054;-90
2023/01/31 16:59:53;;;;;;;11.32;5.93;;;2.80;99.90;;;;;;4968150;28;20349;-89
2023/01/31 17:02:41;;;;;;;16.25;6.40;;;2.80;99.90;;;;;;4973488;28;20057;-87
2023/01/31 17:05:41;;;;;;;10.35;6.03;;;2.80;99.90;;;;;;4961035;28;20039;-87
2023/01/31 17:08:44;;;;;;;11.73;5.85;;;2.70;99.90;;;;;;4960942;28;20413;-87
2023/01/31 17:11:33;;;;;;;13.02;6.03;;;2.70;99.90;;;;;;4969994;28;20069;-89
2023/01/31 17:14:31;;;;;;;9.85;5.38;;;2.70;99.90;;;;;;4970821;28;20047;-87
2023/01/31 17:17:19;;;;;;;10.90;5.97;;;2.70;99.90;;;;;;4960639;28;20118;-87
2023/01/31 17:20:17;;;;;;;9.70;5.93;;;2.70;99.90;;;;;;4965604;28;20480;-89
2023/01/31 17:23:12;;;;;;;12.68;5.78;;;2.70;99.90;;;;;;4977433;28;20039;-88
2023/01/31 17:26:00;;;;;;;11.95;6.45;;;2.70;99.90;;;;;;4959664;28;20043;-86
2023/01/31 17:28:48;;;;;;;11.43;6.40;;;2.60;99.90;;;;;;4964758;28;20043;-87
2023/01/31 17:31:48;;;;;;;13.75;7.13;;;2.60;99.90;;;;;;4967267;28;20081;-90
2023/01/31 17:34:47;;;;;;;11.45;6.07;;;2.60;99.90;;;;;;4963003;28;20149;-87
2023/01/31 17:37:35;;;;;;;11.35;6.53;;;2.60;99.90;;;;;;4963530;28;20054;-88
2023/01/31 17:40:39;;;;;;;11.63;6.53;;;2.60;99.90;;;;;;4975804;28;20042;-86
2023/01/31 17:43:44;;;;;;;12.55;6.03;;;2.60;99.90;;;;;;4937616;28;20053;-90
2023/01/31 17:46:33;;;;;;;15.65;6.65;;;2.60;99.90;;;;;;4979291;28;20038;-91
2023/01/31 17:49:23;;;;;;;13.90;7.20;;;2.70;99.90;;;;;;4978183;28;20057;-89
2023/01/31 17:52:12;;;;;;;9.60;5.78;;;2.70;99.90;;;;;;4971070;28;20058;-88
2023/01/31 17:55:00;;;;;;;14.23;6.60;;;2.60;99.90;;;;;;4971934;28;20066;-89
2023/01/31 17:57:48;;;;;;;10.27;6.75;;;2.70;99.90;;;;;;4967151;28;20122;-88
2023/01/31 18:00:39;;;;;;;18.00;7.82;;;2.70;99.90;;;;;;4973788;28;20055;-88
2023/01/31 18:03:28;;;;;;;14.23;7.03;;;2.70;99.90;;;;;;4957861;28;20051;-87
2023/01/31 18:06:16;;;;;;;17.30;6.60;;;2.70;99.90;;;;;;4977334;28;20051;-87
2023/01/31 18:09:14;;;;;;;13.10;7.35;;;2.70;99.90;;;;;;4969963;28;20043;-88
2023/01/31 18:12:07;;;;;;;13.75;7.93;;;2.60;99.90;;;;;;4962813;28;20046;-89